St. Margarethen - Festspielgelnde
Wetterdaten: aktuell Sonntag, 04.12.2022 22:38
Datum Zeit Temp. A. Feuchte A. Regen Wind Richtung Richtung Taupunkt Windchill Windben
04.12.2022 22:38 3,6 C 0 % 0,0 l/m 12,5 km/h (3 Bft) O 100 -60,0 C -1,2 C 16,1 km/h (3 Bft)
04.12.2022 21:38 3,4 C 0 % 0,0 l/m 9,7 km/h (2 Bft) O 86 -60,0 C 0,5 C 11,3 km/h (2 Bft)
04.12.2022 20:38 3,3 C 0 % 0,0 l/m 6,4 km/h (2 Bft) O 82 -60,0 C 3,3 C 9,7 km/h (2 Bft)
04.12.2022 19:38 3,3 C 0 % 0,0 l/m 3,6 km/h (1 Bft) O-NO 70 -60,0 C 3,3 C 8,0 km/h (2 Bft)
04.12.2022 18:38 3,2 C 0 % 0,0 l/m 7,2 km/h (2 Bft) O 98 -60,0 C 2,4 C 11,3 km/h (2 Bft)
04.12.2022 17:38 3,3 C 0 % 0,0 l/m 0,1 km/h (0 Bft) O 89 -60,0 C 3,3 C 3,2 km/h (1 Bft)
04.12.2022 16:38 3,4 C 0 % 0,0 l/m 8,9 km/h (2 Bft) O 87 -60,0 C 1,2 C 11,3 km/h (2 Bft)
04.12.2022 15:38 3,6 C 0 % 0,0 l/m 10,1 km/h (2 Bft) O-NO 75 -60,0 C 0,5 C 12,9 km/h (3 Bft)
04.12.2022 14:38 3,5 C 0 % 0,0 l/m 11,4 km/h (2 Bft) O-SO 110 -60,0 C -0,6 C 14,5 km/h (3 Bft)
04.12.2022 13:38 3,3 C 0 % 0,0 l/m 8,7 km/h (2 Bft) O-NO 67 -60,0 C 1,2 C 12,9 km/h (3 Bft)
04.12.2022 12:38 3,3 C 0 % 0,0 l/m 13,2 km/h (3 Bft) O-SO 102 -60,0 C -2,0 C 19,3 km/h (3 Bft)
04.12.2022 11:38 3,2 C 0 % 0,0 l/m 13,8 km/h (3 Bft) O 90 -60,0 C -2,4 C 19,3 km/h (3 Bft)
04.12.2022 10:38 3,2 C 0 % 0,0 l/m 14,0 km/h (3 Bft) O-NO 58 -60,0 C -2,5 C 19,3 km/h (3 Bft)
04.12.2022 09:38 3,3 C 0 % 0,0 l/m 14,0 km/h (3 Bft) O 87 -60,0 C -2,4 C 20,9 km/h (4 Bft)
04.12.2022 08:38 3,7 C 0 % 0,0 l/m 12,3 km/h (3 Bft) O 92 -60,0 C -0,9 C 17,7 km/h (3 Bft)
04.12.2022 07:38 3,9 C 0 % 0,0 l/m 7,6 km/h (2 Bft) O 82 -60,0 C 2,8 C 9,7 km/h (2 Bft)
04.12.2022 06:38 4,1 C 0 % 0,0 l/m 10,6 km/h (2 Bft) O-NO 72 -60,0 C 0,7 C 16,1 km/h (3 Bft)
04.12.2022 05:38 4,3 C 0 % 0,0 l/m 11,3 km/h (2 Bft) O-NO 64 -60,0 C 0,4 C 14,5 km/h (3 Bft)
04.12.2022 04:38 4,2 C 0 % 0,0 l/m 0,0 km/h (0 Bft) O-NO 75 -60,0 C 4,2 C 0,0 km/h (0 Bft)
04.12.2022 03:38 4,4 C 0 % 0,0 l/m 3,7 km/h (1 Bft) O 97 -60,0 C 4,4 C 4,8 km/h (1 Bft)
04.12.2022 02:38 4,3 C 0 % 0,0 l/m 1,3 km/h (1 Bft) O-SO 109 -60,0 C 4,3 C 3,2 km/h (1 Bft)
04.12.2022 01:38 4,0 C 0 % 0,0 l/m 3,5 km/h (1 Bft) O-NO 75 -60,0 C 4,0 C 4,8 km/h (1 Bft)
04.12.2022 00:38 4,2 C 0 % 0,0 l/m 6,6 km/h (2 Bft) O-NO 77 -60,0 C 4,0 C 9,7 km/h (2 Bft)
03.12.2022 23:38 4,2 C 0 % 0,0 l/m 5,0 km/h (1 Bft) O 80 -60,0 C 4,2 C 8,0 km/h (2 Bft)
03.12.2022 23:00 4,2 C 0 % 0,0 l/m 8,6 km/h (2 Bft) O-SO 110 -60,0 C 2,3 C 11,3 km/h (2 Bft)
_ Min-Zeit 10:18 23:00 - 00:15 - - 23:00 10:16 00:15
Minimum _ 3,1 C 0 % - 0,0 km/h (0 Bft) - - -60,0 C -5,5 C 0,0 km/h (0 Bft)
_ Max-Zeit 02:46 23:00 23:00 10:16 - - 23:00 02:46 09:29
Maximum _ 4,4 C 0 % 0,0 l/m 20,0 km/h
O-NO (4 Bft)
- - -60,0 C 4,4 C 25,7 km/h
O-NO (4 Bft)
Durchschnitt _ 3,7 C 0 % #0,0 l/m 8,3 km/h (2 Bft) O - -60,0 C 1,6 C 11,7 km/h (2 Bft)